ARG weather

Walnut Ridge Regional Airport
Walnut Ridge, Arkansas, United States

Public forecast

Using degrees Fahrenheit for public forecast. Weather courtesy of forecast.io.

METAR (pilot weather report)

Retrieved 2019/09/21 11:56 UTC (7 minutes ago):

KARG 211156Z AUTO 17007KT 10SM OVC070 21/18 A3017 RMK AO2 SLP215 7//// T02110183 10228 20211 51011

TAF (pilot weather forecast)

Closest forecast is Jonesboro Municipal Airport, 22.2 nm (41.1 km) SE. Retrieved 2019/09/21 12:42 UTC (0 seconds ago):

TAF KJBR 211139Z 2112/2212 16005KT P6SM FEW050 BKN120 BKN250 FM211500 19010KT P6SM SCT050 BKN120 BKN250 FM220100 18004KT P6SM FEW050 BKN200